Time;durP1;ratioP1;P1;durP2;ratioP2;P2;SDS_P1;SDS_P2;PMS_P1;PMS_P2;Temp;Humidity;BMP_temperature;BMP_pressure;BME280_temperature;BME280_humidity;BME280_pressure;Samples;Min_cycle;Max_cycle;Signal;HPM_P1;HPM_P2
2022/02/06 00:00:20;;;;;;;22.45;11.95;;;;;;;;;;4365479;32;20066;-63
2022/02/06 00:02:49;;;;;;;24.40;11.65;;;;;;;;;;4365220;32;20214;-63
2022/02/06 00:05:16;;;;;;;22.50;11.38;;;;;;;;;;4377332;32;20512;-63
2022/02/06 00:07:45;;;;;;;28.10;12.68;;;;;;;;;;4378906;32;20079;-63
2022/02/06 00:10:12;;;;;;;25.88;13.13;;;;;;;;;;4377386;32;20105;-63
2022/02/06 00:12:38;;;;;;;26.35;13.38;;;;;;;;;;4364893;32;20074;-63
2022/02/06 00:15:05;;;;;;;24.77;12.23;;;;;;;;;;4365449;32;20524;-63
2022/02/06 00:17:32;;;;;;;22.10;11.25;;;;;;;;;;4378799;32;20090;-63
2022/02/06 00:19:59;;;;;;;21.87;11.95;;;;;;;;;;4377226;32;20189;-63
2022/02/06 00:22:35;;;;;;;25.52;12.48;;;;;;;;;;4364915;32;20084;-64
2022/02/06 00:30:40;;;;;;;19.75;11.25;;;;;;;;;;4350078;32;20101;-63
2022/02/06 00:33:18;;;;;;;23.30;11.88;;;;;;;;;;4376924;32;20076;-64
2022/02/06 00:39:02;;;;;;;24.10;11.82;;;;;;;;;;4364552;32;20153;-63
2022/02/06 00:41:25;;;;;;;23.05;11.20;;;;;;;;;;4377533;32;20074;-64
2022/02/06 00:43:52;;;;;;;24.70;12.20;;;;;;;;;;4352070;32;20489;-64
2022/02/06 00:46:20;;;;;;;20.12;11.12;;;;;;;;;;4365064;32;20153;-63
2022/02/06 00:48:55;;;;;;;22.48;11.05;;;;;;;;;;4364701;32;20147;-64
2022/02/06 00:51:32;;;;;;;19.48;10.75;;;;;;;;;;4377960;32;20062;-62
2022/02/06 00:53:59;;;;;;;26.12;12.82;;;;;;;;;;4364740;32;20077;-63
2022/02/06 00:56:27;;;;;;;22.77;11.68;;;;;;;;;;4364161;32;20231;-63
2022/02/06 00:58:54;;;;;;;23.83;12.43;;;;;;;;;;4376496;32;20157;-63
2022/02/06 01:01:20;;;;;;;24.60;12.30;;;;;;;;;;4363715;32;20091;-64
2022/02/06 01:03:47;;;;;;;19.05;10.45;;;;;;;;;;4376616;32;20504;-63
2022/02/06 01:06:14;;;;;;;24.48;12.07;;;;;;;;;;4363990;32;20081;-64
2022/02/06 01:08:41;;;;;;;19.12;10.50;;;;;;;;;;4363349;32;20067;-64
2022/02/06 01:11:10;;;;;;;19.95;10.77;;;;;;;;;;4363891;32;20085;-64
2022/02/06 01:13:54;;;;;;;24.45;11.45;;;;;;;;;;4377879;32;20520;-63
2022/02/06 01:16:26;;;;;;;21.20;12.13;;;;;;;;;;4377742;32;20076;-63
2022/02/06 01:19:01;;;;;;;23.98;13.00;;;;;;;;;;4363485;32;20086;-63
2022/02/06 01:26:49;;;;;;;24.05;11.30;;;;;;;;;;4376116;32;20181;-63
2022/02/06 01:29:29;;;;;;;23.17;12.45;;;;;;;;;;4376616;32;20507;-63
2022/02/06 01:32:01;;;;;;;27.30;12.63;;;;;;;;;;4377978;32;20451;-63
2022/02/06 01:34:46;;;;;;;25.37;12.73;;;;;;;;;;4377689;32;20082;-63
2022/02/06 01:40:03;;;;;;;26.45;12.55;;;;;;;;;;4376058;32;20082;-64
2022/02/06 01:42:35;;;;;;;24.58;12.05;;;;;;;;;;4377377;32;20168;-63
2022/02/06 02:07:27;;;;;;;23.67;12.43;;;;;;;;;;4377509;32;20070;-64
2022/02/06 02:47:39;;;;;;;27.35;13.93;;;;;;;;;;4362716;32;20134;-64
2022/02/06 02:50:24;;;;;;;20.48;11.57;;;;;;;;;;4362929;32;20077;-63
2022/02/06 02:57:54;;;;;;;25.30;13.07;;;;;;;;;;4374882;32;20104;-63
2022/02/06 03:00:33;;;;;;;24.08;13.18;;;;;;;;;;4376227;32;20164;-64
2022/02/06 03:03:14;;;;;;;27.10;13.40;;;;;;;;;;4375499;32;20098;-64
2022/02/06 03:05:42;;;;;;;23.38;13.27;;;;;;;;;;4350861;32;20072;-64
2022/02/06 03:08:10;;;;;;;25.62;12.98;;;;;;;;;;4376577;32;20169;-64
2022/02/06 03:10:37;;;;;;;23.12;12.40;;;;;;;;;;4363063;32;20082;-64
2022/02/06 03:13:10;;;;;;;20.73;10.85;;;;;;;;;;4362557;32;20094;-64
2022/02/06 03:15:48;;;;;;;23.90;12.23;;;;;;;;;;4362233;32;20507;-64
2022/02/06 03:18:18;;;;;;;26.33;12.82;;;;;;;;;;4362410;32;20559;-63
2022/02/06 03:20:46;;;;;;;25.55;12.80;;;;;;;;;;4347271;32;20162;-63
2022/02/06 03:23:14;;;;;;;23.62;12.65;;;;;;;;;;4347908;32;20187;-64
2022/02/06 03:25:53;;;;;;;23.98;12.07;;;;;;;;;;4348039;32;20092;-63
2022/02/06 03:28:28;;;;;;;25.35;13.45;;;;;;;;;;4348207;32;20175;-64
2022/02/06 03:30:55;;;;;;;24.20;13.35;;;;;;;;;;4335155;32;20079;-64
2022/02/06 03:33:22;;;;;;;21.20;11.75;;;;;;;;;;4346985;32;20493;-63
2022/02/06 03:35:48;;;;;;;23.58;12.25;;;;;;;;;;4361165;32;20100;-63
2022/02/06 03:38:15;;;;;;;29.77;13.30;;;;;;;;;;4347300;32;20082;-63
2022/02/06 03:40:50;;;;;;;25.08;13.07;;;;;;;;;;4347579;32;20079;-63
2022/02/06 03:43:22;;;;;;;22.58;12.70;;;;;;;;;;4335017;32;20074;-64
2022/02/06 03:46:12;;;;;;;25.33;12.18;;;;;;;;;;4346986;32;20171;-63
2022/02/06 03:48:49;;;;;;;25.48;12.35;;;;;;;;;;4359883;32;20070;-62
2022/02/06 03:51:29;;;;;;;25.95;13.82;;;;;;;;;;4347868;32;20183;-64
2022/02/06 03:53:56;;;;;;;26.75;14.40;;;;;;;;;;4347322;32;20149;-64
2022/02/06 03:56:25;;;;;;;24.15;13.48;;;;;;;;;;4347071;32;20461;-62
2022/02/06 03:58:52;;;;;;;30.27;12.82;;;;;;;;;;4361053;32;20155;-64
2022/02/06 04:01:18;;;;;;;21.73;12.95;;;;;;;;;;4359452;32;20111;-63
2022/02/06 04:03:45;;;;;;;25.42;13.30;;;;;;;;;;4359642;32;20082;-64
2022/02/06 04:06:12;;;;;;;24.80;13.43;;;;;;;;;;4347226;32;20539;-64
2022/02/06 04:08:40;;;;;;;23.92;12.65;;;;;;;;;;4334491;32;20542;-63
2022/02/06 04:11:18;;;;;;;21.98;12.30;;;;;;;;;;4359531;32;20081;-64
2022/02/06 04:14:04;;;;;;;23.60;13.35;;;;;;;;;;4360820;32;20502;-64
2022/02/06 04:16:40;;;;;;;19.50;11.15;;;;;;;;;;4360991;32;20078;-63
2022/02/06 04:19:25;;;;;;;22.17;11.90;;;;;;;;;;4363799;32;20143;-63
2022/02/06 04:21:57;;;;;;;21.92;12.18;;;;;;;;;;4362143;32;20175;-63
2022/02/06 04:24:25;;;;;;;20.77;11.35;;;;;;;;;;4375474;32;20105;-62
2022/02/06 04:26:53;;;;;;;21.25;12.02;;;;;;;;;;4362020;32;20089;-64
2022/02/06 04:29:20;;;;;;;21.42;12.43;;;;;;;;;;4374473;32;20077;-64
2022/02/06 04:31:49;;;;;;;23.85;12.77;;;;;;;;;;4374288;32;20086;-65
2022/02/06 04:34:21;;;;;;;21.85;12.20;;;;;;;;;;4361784;32;20527;-64
2022/02/06 04:37:15;;;;;;;24.20;13.05;;;;;;;;;;4361416;32;20078;-64
2022/02/06 05:15:00;;;;;;;21.33;11.95;;;;;;;;;;4376504;32;20082;-63
2022/02/06 05:22:46;;;;;;;20.10;11.12;;;;;;;;;;4363640;32;20078;-63
2022/02/06 05:30:17;;;;;;;25.23;12.88;;;;;;;;;;4363688;32;20078;-62
2022/02/06 05:32:58;;;;;;;25.55;12.75;;;;;;;;;;4351519;32;20077;-63
2022/02/06 05:35:26;;;;;;;25.83;13.35;;;;;;;;;;4363458;32;20141;-64
2022/02/06 05:37:53;;;;;;;24.33;12.70;;;;;;;;;;4376140;32;20080;-63
2022/02/06 05:40:20;;;;;;;25.90;13.00;;;;;;;;;;4363540;32;20070;-63
2022/02/06 05:42:47;;;;;;;25.40;13.32;;;;;;;;;;4363726;32;20074;-63
2022/02/06 05:45:18;;;;;;;22.05;13.00;;;;;;;;;;4377460;32;20520;-63
2022/02/06 05:47:44;;;;;;;22.87;13.02;;;;;;;;;;4350920;32;20143;-63
2022/02/06 05:50:15;;;;;;;21.52;11.70;;;;;;;;;;4363297;32;20070;-64
2022/02/06 05:52:42;;;;;;;21.98;11.95;;;;;;;;;;4363420;32;20078;-63
2022/02/06 05:55:09;;;;;;;20.08;11.02;;;;;;;;;;4363139;32;20078;-64
2022/02/06 05:57:37;;;;;;;18.58;10.73;;;;;;;;;;4363463;32;20066;-62
2022/02/06 06:00:05;;;;;;;19.45;10.98;;;;;;;;;;4363036;32;20085;-64
2022/02/06 06:02:32;;;;;;;18.33;10.82;;;;;;;;;;4363308;32;20071;-63
2022/02/06 06:04:58;;;;;;;18.85;10.38;;;;;;;;;;4376305;32;20135;-63
2022/02/06 06:07:25;;;;;;;18.62;10.27;;;;;;;;;;4363945;32;20100;-63
2022/02/06 06:09:52;;;;;;;16.27;9.48;;;;;;;;;;4363537;32;20085;-62
2022/02/06 06:12:19;;;;;;;16.10;9.13;;;;;;;;;;4375531;32;20085;-64
2022/02/06 06:14:47;;;;;;;21.12;10.43;;;;;;;;;;4375723;32;20508;-64
2022/02/06 06:17:14;;;;;;;15.68;8.93;;;;;;;;;;4379446;32;20505;-63
2022/02/06 06:19:47;;;;;;;15.90;8.68;;;;;;;;;;4364961;32;20062;-65
2022/02/06 06:22:17;;;;;;;17.87;10.07;;;;;;;;;;4364518;32;20101;-63
2022/02/06 06:24:46;;;;;;;18.20;9.07;;;;;;;;;;4377895;32;20075;-64
2022/02/06 06:27:13;;;;;;;16.25;9.07;;;;;;;;;;4375935;32;20101;-64
2022/02/06 06:29:40;;;;;;;16.20;9.23;;;;;;;;;;4363959;32;20086;-63
2022/02/06 06:32:07;;;;;;;17.10;9.77;;;;;;;;;;4362828;32;20101;-63
2022/02/06 06:34:34;;;;;;;17.33;9.63;;;;;;;;;;4377039;32;20082;-63
2022/02/06 06:37:00;;;;;;;14.43;8.40;;;;;;;;;;4375960;32;20081;-64
2022/02/06 06:42:00;;;;;;;13.62;7.82;;;;;;;;;;4362819;32;20171;-64
2022/02/06 06:44:27;;;;;;;12.23;7.37;;;;;;;;;;4350759;32;20094;-62
2022/02/06 06:46:54;;;;;;;13.38;8.55;;;;;;;;;;4375366;32;20162;-63
2022/02/06 06:49:20;;;;;;;15.98;7.95;;;;;;;;;;4349936;32;20485;-63
2022/02/06 06:51:47;;;;;;;16.50;7.97;;;;;;;;;;4362494;32;20085;-63
2022/02/06 06:54:21;;;;;;;16.00;8.30;;;;;;;;;;4362274;32;20074;-64
2022/02/06 06:57:04;;;;;;;12.15;7.37;;;;;;;;;;4363246;32;20078;-63
2022/02/06 07:04:43;;;;;;;13.07;7.37;;;;;;;;;;4362608;32;20093;-64
2022/02/06 07:07:09;;;;;;;12.00;7.37;;;;;;;;;;4362009;32;20081;-63
2022/02/06 07:09:36;;;;;;;13.07;7.53;;;;;;;;;;4376366;32;20077;-63
2022/02/06 07:12:04;;;;;;;13.43;7.15;;;;;;;;;;4376220;32;20119;-62
2022/02/06 07:14:32;;;;;;;12.90;7.47;;;;;;;;;;4362273;32;20082;-64
2022/02/06 07:16:59;;;;;;;11.65;7.57;;;;;;;;;;4349770;32;20086;-63
2022/02/06 07:19:25;;;;;;;11.82;7.40;;;;;;;;;;4349380;32;20159;-64
2022/02/06 07:21:52;;;;;;;13.15;7.97;;;;;;;;;;4362917;32;20098;-63
2022/02/06 07:24:21;;;;;;;12.65;8.02;;;;;;;;;;4350046;32;20070;-64
2022/02/06 07:26:51;;;;;;;13.45;7.45;;;;;;;;;;4375957;32;20066;-63
2022/02/06 07:29:18;;;;;;;14.45;8.07;;;;;;;;;;4362248;32;20074;-64
2022/02/06 07:31:46;;;;;;;15.00;7.65;;;;;;;;;;4362265;32;20563;-63
2022/02/06 07:34:14;;;;;;;10.23;6.40;;;;;;;;;;4349630;32;20067;-62
2022/02/06 07:36:40;;;;;;;14.43;7.12;;;;;;;;;;4362473;32;20500;-63
2022/02/06 07:39:07;;;;;;;12.02;7.78;;;;;;;;;;4376257;32;20088;-63
2022/02/06 07:41:34;;;;;;;12.20;7.30;;;;;;;;;;4375814;32;20078;-63
2022/02/06 07:44:01;;;;;;;12.70;6.50;;;;;;;;;;4361853;32;20543;-64
2022/02/06 07:46:40;;;;;;;15.38;8.23;;;;;;;;;;4362186;32;20090;-63
2022/02/06 07:49:07;;;;;;;13.60;7.78;;;;;;;;;;4375960;32;20448;-64
2022/02/06 07:51:35;;;;;;;14.02;7.87;;;;;;;;;;4374675;32;20093;-63
2022/02/06 07:54:03;;;;;;;14.43;8.20;;;;;;;;;;4363843;32;20082;-63
2022/02/06 07:56:29;;;;;;;15.25;9.38;;;;;;;;;;4378414;32;20081;-63
2022/02/06 07:58:56;;;;;;;12.52;7.35;;;;;;;;;;4376582;32;20170;-63
2022/02/06 08:01:23;;;;;;;14.60;8.80;;;;;;;;;;4375908;32;20512;-63
2022/02/06 08:03:50;;;;;;;13.88;7.65;;;;;;;;;;4376226;32;20094;-63
2022/02/06 08:06:17;;;;;;;17.15;7.72;;;;;;;;;;4349598;32;20093;-62
2022/02/06 08:08:44;;;;;;;10.75;7.68;;;;;;;;;;4349477;32;20073;-62
2022/02/06 08:11:15;;;;;;;13.60;8.20;;;;;;;;;;4375782;32;20512;-63
2022/02/06 08:13:52;;;;;;;14.00;7.30;;;;;;;;;;4374332;32;20163;-63
2022/02/06 08:16:18;;;;;;;;;;;;;;;;;;4362562;32;20154;-64
2022/02/06 08:18:45;;;;;;;13.73;7.93;;;;;;;;;;4362625;32;20025;-63
2022/02/06 08:21:13;;;;;;;12.80;7.80;;;;;;;;;;4364894;32;20078;-63
2022/02/06 08:23:40;;;;;;;14.70;8.68;;;;;;;;;;4378497;32;20608;-63
2022/02/06 08:26:08;;;;;;;13.68;8.55;;;;;;;;;;4364930;32;20086;-62
2022/02/06 08:28:37;;;;;;;13.80;7.75;;;;;;;;;;4365158;32;20065;-63
2022/02/06 08:31:04;;;;;;;12.98;8.27;;;;;;;;;;4377275;32;20171;-64
2022/02/06 08:33:31;;;;;;;13.32;8.02;;;;;;;;;;4351933;32;20531;-63
2022/02/06 08:35:59;;;;;;;13.07;8.13;;;;;;;;;;4352093;32;20074;-64
2022/02/06 08:38:25;;;;;;;16.15;8.75;;;;;;;;;;4376730;32;20175;-63
2022/02/06 08:40:52;;;;;;;14.93;8.48;;;;;;;;;;4364899;32;20062;-63
2022/02/06 08:43:20;;;;;;;12.48;8.43;;;;;;;;;;4379103;32;20144;-63
2022/02/06 08:45:47;;;;;;;13.38;8.52;;;;;;;;;;4364514;32;20140;-62
2022/02/06 08:48:14;;;;;;;14.75;7.80;;;;;;;;;;4364991;32;20078;-62
2022/02/06 08:50:40;;;;;;;16.00;8.93;;;;;;;;;;4378288;32;20093;-63
2022/02/06 08:53:07;;;;;;;16.60;9.85;;;;;;;;;;4376647;32;20194;-63
2022/02/06 08:55:34;;;;;;;15.25;9.02;;;;;;;;;;4378291;32;20510;-64
2022/02/06 08:58:01;;;;;;;13.90;9.45;;;;;;;;;;4376791;32;20147;-64
2022/02/06 09:00:28;;;;;;;13.62;8.20;;;;;;;;;;4378155;32;20165;-62
2022/02/06 09:02:55;;;;;;;14.02;8.40;;;;;;;;;;4364200;32;20145;-63
2022/02/06 09:05:23;;;;;;;13.05;8.07;;;;;;;;;;4377656;32;20154;-62
2022/02/06 09:07:50;;;;;;;13.15;8.15;;;;;;;;;;4363952;32;20101;-62
2022/02/06 09:10:19;;;;;;;14.90;7.43;;;;;;;;;;4364019;32;20070;-62
2022/02/06 09:12:53;;;;;;;14.70;8.68;;;;;;;;;;4351656;32;20094;-63
2022/02/06 09:15:20;;;;;;;12.37;7.80;;;;;;;;;;4364025;32;20097;-62
2022/02/06 09:17:46;;;;;;;16.02;9.15;;;;;;;;;;4363748;32;20564;-65
2022/02/06 09:20:14;;;;;;;14.13;8.75;;;;;;;;;;4363777;32;20123;-62
2022/02/06 09:22:43;;;;;;;18.30;11.50;;;;;;;;;;4378152;32;20077;-63
2022/02/06 09:25:11;;;;;;;14.80;8.73;;;;;;;;;;4363927;32;20220;-64
2022/02/06 09:27:38;;;;;;;17.98;9.32;;;;;;;;;;4351213;32;20546;-64
2022/02/06 09:30:08;;;;;;;20.40;10.43;;;;;;;;;;4376270;32;20113;-63
2022/02/06 09:37:30;;;;;;;16.80;9.02;;;;;;;;;;4376100;32;20073;-63
2022/02/06 09:39:58;;;;;;;19.37;10.15;;;;;;;;;;4364649;32;20074;-64
2022/02/06 09:42:27;;;;;;;18.05;10.10;;;;;;;;;;4376504;32;20082;-63
2022/02/06 09:44:55;;;;;;;18.73;11.07;;;;;;;;;;4363524;32;20105;-63
2022/02/06 09:47:30;;;;;;;18.65;9.95;;;;;;;;;;4376213;32;20101;-63
2022/02/06 09:49:57;;;;;;;16.33;10.07;;;;;;;;;;4376191;32;20075;-63
2022/02/06 09:52:25;;;;;;;19.95;10.82;;;;;;;;;;4377494;32;20500;-63
2022/02/06 09:55:07;;;;;;;17.70;10.27;;;;;;;;;;4363854;32;20089;-66
2022/02/06 09:58:44;;;;;;;20.15;10.95;;;;;;;;;;4364215;32;20225;-63
2022/02/06 10:00:29;;;;;;;23.30;11.32;;;;;;;;;;4357240;32;20549;-62
2022/02/06 10:03:02;;;;;;;20.92;13.40;;;;;;;;;;4350917;32;20089;-62
2022/02/06 10:05:35;;;;;;;19.55;11.38;;;;;;;;;;4375931;32;20075;-64
2022/02/06 10:08:15;;;;;;;18.70;10.65;;;;;;;;;;4363033;32;20513;-63
2022/02/06 10:10:58;;;;;;;21.58;10.88;;;;;;;;;;4363690;32;20070;-63
2022/02/06 10:13:25;;;;;;;17.95;9.18;;;;;;;;;;4363520;32;20477;-62
2022/02/06 10:15:51;;;;;;;19.45;10.63;;;;;;;;;;4375755;32;20078;-64
2022/02/06 10:18:18;;;;;;;21.37;11.63;;;;;;;;;;4363345;32;20082;-63
2022/02/06 10:20:47;;;;;;;20.15;11.00;;;;;;;;;;4362926;32;20093;-63
2022/02/06 10:23:35;;;;;;;20.42;11.35;;;;;;;;;;4363722;32;20089;-64
2022/02/06 10:26:11;;;;;;;17.95;10.27;;;;;;;;;;4376041;32;20058;-62
2022/02/06 10:28:43;;;;;;;20.70;13.02;;;;;;;;;;4362710;32;20605;-63
2022/02/06 10:31:10;;;;;;;18.75;10.95;;;;;;;;;;4363131;32;20077;-62
2022/02/06 10:33:51;;;;;;;23.95;12.55;;;;;;;;;;4375778;32;20089;-63
2022/02/06 10:36:37;;;;;;;21.65;11.38;;;;;;;;;;4376227;32;20074;-64
2022/02/06 10:39:06;;;;;;;23.38;11.68;;;;;;;;;;4350613;32;20528;-64
2022/02/06 10:41:34;;;;;;;19.00;11.02;;;;;;;;;;4363301;32;20172;-63
2022/02/06 10:44:09;;;;;;;19.48;11.40;;;;;;;;;;4363292;32;20546;-63
2022/02/06 10:46:53;;;;;;;18.90;10.73;;;;;;;;;;4375664;32;20165;-62
2022/02/06 10:49:21;;;;;;;18.75;10.98;;;;;;;;;;4375676;32;20076;-63
2022/02/06 10:52:02;;;;;;;19.37;11.85;;;;;;;;;;4375771;32;20125;-64
2022/02/06 10:54:28;;;;;;;21.25;14.30;;;;;;;;;;4362472;32;20504;-63
2022/02/06 10:57:02;;;;;;;21.33;11.55;;;;;;;;;;4376585;32;20581;-64
2022/02/06 10:59:52;;;;;;;19.60;10.43;;;;;;;;;;4362518;32;20082;-63
2022/02/06 11:02:34;;;;;;;19.58;11.12;;;;;;;;;;4376150;32;20437;-63
2022/02/06 11:05:20;;;;;;;19.02;11.63;;;;;;;;;;4375205;32;20074;-62
2022/02/06 11:07:58;;;;;;;20.73;10.77;;;;;;;;;;4350688;32;20519;-64
2022/02/06 11:10:26;;;;;;;22.00;9.90;;;;;;;;;;4374785;32;20054;-64
2022/02/06 11:12:54;;;;;;;22.08;11.32;;;;;;;;;;4375544;32;20097;-63
2022/02/06 11:15:36;;;;;;;19.15;10.50;;;;;;;;;;4363572;32;20489;-64
2022/02/06 11:18:09;;;;;;;18.65;10.27;;;;;;;;;;4376204;32;20093;-64
2022/02/06 11:20:37;;;;;;;22.67;11.98;;;;;;;;;;4362611;32;20063;-63
2022/02/06 11:23:03;;;;;;;21.73;11.00;;;;;;;;;;4374505;32;20597;-63
2022/02/06 11:25:34;;;;;;;20.85;11.63;;;;;;;;;;4376341;32;20157;-62
2022/02/06 11:28:03;;;;;;;20.92;10.63;;;;;;;;;;4374719;32;20504;-63
2022/02/06 11:30:30;;;;;;;20.48;11.45;;;;;;;;;;4349870;32;20071;-63
2022/02/06 11:32:57;;;;;;;21.65;10.55;;;;;;;;;;4362514;32;20089;-64
2022/02/06 11:35:29;;;;;;;20.80;11.95;;;;;;;;;;4362505;32;20508;-62
2022/02/06 11:44:29;;;;;;;20.42;11.73;;;;;;;;;;4362777;32;20125;-63
2022/02/06 11:47:39;;;;;;;21.30;10.50;;;;;;;;;;4376313;32;20054;-64
2022/02/06 11:50:10;;;;;;;23.05;11.65;;;;;;;;;;4345814;32;20481;-63
2022/02/06 11:52:53;;;;;;;24.45;11.45;;;;;;;;;;4362804;32;20085;-63
2022/02/06 11:55:48;;;;;;;21.87;11.35;;;;;;;;;;4379815;32;20070;-63
2022/02/06 11:58:32;;;;;;;20.55;11.45;;;;;;;;;;4365152;32;20072;-64
2022/02/06 12:01:08;;;;;;;20.12;10.77;;;;;;;;;;4369083;32;20105;-63
2022/02/06 12:03:47;;;;;;;22.53;12.10;;;;;;;;;;4384662;32;20054;-63
2022/02/06 12:06:14;;;;;;;20.55;12.23;;;;;;;;;;4371281;32;20173;-64
2022/02/06 12:08:59;;;;;;;23.83;12.20;;;;;;;;;;4365952;32;20460;-64
2022/02/06 12:11:27;;;;;;;23.73;12.75;;;;;;;;;;4378659;32;20489;-62
2022/02/06 12:14:16;;;;;;;19.95;11.15;;;;;;;;;;4378798;32;20070;-65
2022/02/06 12:16:52;;;;;;;22.85;11.50;;;;;;;;;;4365205;32;20089;-64
2022/02/06 12:19:27;;;;;;;22.92;12.20;;;;;;;;;;4376793;32;20094;-63
2022/02/06 12:21:55;;;;;;;24.65;12.23;;;;;;;;;;4377619;32;20078;-64
2022/02/06 12:24:41;;;;;;;22.67;11.32;;;;;;;;;;4377138;32;20146;-64
2022/02/06 12:27:25;;;;;;;20.33;10.93;;;;;;;;;;4378464;32;20086;-64
2022/02/06 12:30:06;;;;;;;20.25;10.82;;;;;;;;;;4364664;32;20058;-64
2022/02/06 12:32:33;;;;;;;20.58;11.68;;;;;;;;;;4377017;32;20167;-63
2022/02/06 12:37:46;;;;;;;21.00;10.37;;;;;;;;;;4365060;32;20093;-63
2022/02/06 12:40:17;;;;;;;22.20;10.82;;;;;;;;;;4364807;32;20191;-63
2022/02/06 12:42:46;;;;;;;19.75;11.12;;;;;;;;;;4353234;32;20166;-62
2022/02/06 12:45:16;;;;;;;21.33;10.80;;;;;;;;;;4377853;32;20424;-63
2022/02/06 12:47:51;;;;;;;22.17;11.12;;;;;;;;;;4353757;32;20460;-63
2022/02/06 12:50:30;;;;;;;21.02;10.50;;;;;;;;;;4353469;32;20080;-64
2022/02/06 12:52:58;;;;;;;20.65;10.88;;;;;;;;;;4364822;32;20078;-63
2022/02/06 12:55:29;;;;;;;21.12;11.07;;;;;;;;;;4378156;32;20123;-64
2022/02/06 12:57:57;;;;;;;19.77;10.23;;;;;;;;;;4364460;32;20161;-63
2022/02/06 13:00:25;;;;;;;20.65;11.27;;;;;;;;;;4364268;32;20129;-64
2022/02/06 13:02:52;;;;;;;23.62;11.68;;;;;;;;;;4378083;32;20093;-63
2022/02/06 13:05:19;;;;;;;19.58;10.75;;;;;;;;;;4376440;32;20531;-64
2022/02/06 13:07:46;;;;;;;22.27;9.98;;;;;;;;;;4364052;32;20082;-62
2022/02/06 13:10:14;;;;;;;21.02;10.95;;;;;;;;;;4377830;32;20077;-63
2022/02/06 13:12:53;;;;;;;20.73;10.88;;;;;;;;;;4364026;32;20535;-63
2022/02/06 13:15:44;;;;;;;25.55;12.02;;;;;;;;;;4376823;32;20625;-63
2022/02/06 13:18:40;;;;;;;21.83;12.75;;;;;;;;;;4352743;32;20090;-63
2022/02/06 13:26:49;;;;;;;30.58;13.65;;;;;;;;;;4363868;32;20077;-64
2022/02/06 13:32:16;;;;;;;20.85;11.02;;;;;;;;;;4376106;32;20529;-63
2022/02/06 13:37:26;;;;;;;20.92;10.93;;;;;;;;;;4377488;32;20062;-62
2022/02/06 13:39:57;;;;;;;22.55;11.25;;;;;;;;;;4377564;32;20063;-63
2022/02/06 13:42:32;;;;;;;22.05;11.93;;;;;;;;;;4363250;32;20489;-63
2022/02/06 13:45:27;;;;;;;25.05;12.65;;;;;;;;;;4377244;32;20078;-63
2022/02/06 13:47:55;;;;;;;22.80;11.43;;;;;;;;;;4363065;32;20090;-63
2022/02/06 13:50:23;;;;;;;20.80;10.88;;;;;;;;;;4363426;32;20090;-63
2022/02/06 13:53:13;;;;;;;21.50;10.88;;;;;;;;;;4377182;32;20133;-64
2022/02/06 13:55:49;;;;;;;21.02;11.25;;;;;;;;;;4338912;32;20150;-64
2022/02/06 13:58:17;;;;;;;19.83;11.52;;;;;;;;;;4363670;32;20163;-63
2022/02/06 14:00:58;;;;;;;21.12;11.52;;;;;;;;;;4375737;32;20101;-63
2022/02/06 14:03:40;;;;;;;21.05;11.27;;;;;;;;;;4363655;32;20077;-63
2022/02/06 14:06:08;;;;;;;23.83;12.18;;;;;;;;;;4363640;32;20080;-63
2022/02/06 14:08:36;;;;;;;26.25;11.60;;;;;;;;;;4363295;32;20097;-63
2022/02/06 14:11:18;;;;;;;22.02;11.80;;;;;;;;;;4363313;32;20094;-63
2022/02/06 14:13:45;;;;;;;22.23;11.43;;;;;;;;;;4375528;32;20085;-63
2022/02/06 14:16:12;;;;;;;20.08;11.02;;;;;;;;;;4375486;32;20535;-63
2022/02/06 14:18:51;;;;;;;20.10;11.48;;;;;;;;;;4362955;32;20080;-64
2022/02/06 14:21:18;;;;;;;24.60;12.98;;;;;;;;;;4363744;32;20070;-63
2022/02/06 14:24:03;;;;;;;24.30;12.60;;;;;;;;;;4362841;32;20130;-64
2022/02/06 14:26:30;;;;;;;25.60;13.10;;;;;;;;;;4375787;32;20084;-63
2022/02/06 14:28:56;;;;;;;21.25;11.77;;;;;;;;;;4377075;32;20239;-63
2022/02/06 14:31:25;;;;;;;23.05;11.60;;;;;;;;;;4375932;32;20074;-63
2022/02/06 14:33:51;;;;;;;23.83;12.37;;;;;;;;;;4350917;32;20086;-64
2022/02/06 14:36:23;;;;;;;20.12;11.00;;;;;;;;;;4363148;32;20089;-63
2022/02/06 14:38:58;;;;;;;20.35;12.10;;;;;;;;;;4362634;32;20527;-64
2022/02/06 14:41:40;;;;;;;18.85;10.63;;;;;;;;;;4363115;32;20093;-63
2022/02/06 14:44:09;;;;;;;21.00;10.88;;;;;;;;;;4362568;32;20489;-64
2022/02/06 14:46:37;;;;;;;23.42;11.35;;;;;;;;;;4376484;32;20089;-63
2022/02/06 14:49:07;;;;;;;20.75;11.38;;;;;;;;;;4376292;32;20501;-63
2022/02/06 14:51:40;;;;;;;21.05;11.98;;;;;;;;;;4375571;32;20516;-63
2022/02/06 14:54:10;;;;;;;24.35;12.25;;;;;;;;;;4362580;32;20074;-64
2022/02/06 14:56:39;;;;;;;22.50;11.85;;;;;;;;;;4374961;32;20127;-64
2022/02/06 14:59:08;;;;;;;21.50;12.23;;;;;;;;;;4375137;32;20102;-62
2022/02/06 15:01:34;;;;;;;21.02;11.73;;;;;;;;;;4362484;32;20497;-63
2022/02/06 15:04:01;;;;;;;21.17;12.43;;;;;;;;;;4362590;32;20082;-64
2022/02/06 15:06:29;;;;;;;25.45;12.93;;;;;;;;;;4374922;32;20182;-64
2022/02/06 15:08:57;;;;;;;25.95;12.13;;;;;;;;;;4362436;32;20521;-63
2022/02/06 15:11:24;;;;;;;20.75;11.15;;;;;;;;;;4374662;32;20081;-63
2022/02/06 15:13:51;;;;;;;24.35;11.65;;;;;;;;;;4362807;32;20081;-62
2022/02/06 15:16:22;;;;;;;18.98;10.73;;;;;;;;;;4376053;32;20164;-63
2022/02/06 15:18:55;;;;;;;19.98;11.12;;;;;;;;;;4375038;32;20065;-64
2022/02/06 15:21:22;;;;;;;18.45;11.00;;;;;;;;;;4362008;32;20058;-63
2022/02/06 15:23:49;;;;;;;19.12;11.05;;;;;;;;;;4374522;32;20588;-64
2022/02/06 15:26:16;;;;;;;20.75;11.25;;;;;;;;;;4375977;32;20177;-63
2022/02/06 15:28:43;;;;;;;21.35;10.45;;;;;;;;;;4361894;32;20085;-64
2022/02/06 15:31:10;;;;;;;20.92;10.73;;;;;;;;;;4374603;32;20081;-62
2022/02/06 15:33:37;;;;;;;21.75;11.57;;;;;;;;;;4374416;32;20430;-63
2022/02/06 15:36:04;;;;;;;21.70;11.48;;;;;;;;;;4376387;32;20159;-63
2022/02/06 15:38:32;;;;;;;21.70;11.15;;;;;;;;;;4376346;32;20171;-62
2022/02/06 15:41:00;;;;;;;20.77;11.12;;;;;;;;;;4362072;32;20078;-64
2022/02/06 15:43:27;;;;;;;18.50;10.95;;;;;;;;;;4361851;32;20086;-63
2022/02/06 15:45:54;;;;;;;19.48;11.10;;;;;;;;;;4374773;32;20155;-62
2022/02/06 15:48:20;;;;;;;20.33;10.30;;;;;;;;;;4362388;32;20190;-62
2022/02/06 15:50:50;;;;;;;20.23;10.80;;;;;;;;;;4362435;32;20089;-63
2022/02/06 15:53:17;;;;;;;19.65;10.93;;;;;;;;;;4374824;32;20078;-63
2022/02/06 15:55:44;;;;;;;21.62;10.85;;;;;;;;;;4362157;32;20090;-64
2022/02/06 15:58:11;;;;;;;21.90;12.13;;;;;;;;;;4374515;32;20094;-63
2022/02/06 16:00:38;;;;;;;19.60;10.85;;;;;;;;;;4374772;32;20090;-64
2022/02/06 16:03:04;;;;;;;19.25;10.60;;;;;;;;;;4362005;32;20112;-63
2022/02/06 16:05:31;;;;;;;21.42;11.50;;;;;;;;;;4362124;32;20627;-62
2022/02/06 16:07:58;;;;;;;22.17;11.45;;;;;;;;;;4362034;32;20105;-62
2022/02/06 16:10:25;;;;;;;21.50;10.88;;;;;;;;;;4375768;32;20074;-64
2022/02/06 16:12:52;;;;;;;22.83;10.98;;;;;;;;;;4361830;32;20464;-63
2022/02/06 16:15:19;;;;;;;19.75;10.60;;;;;;;;;;4361948;32;20456;-63
2022/02/06 16:17:46;;;;;;;19.37;10.85;;;;;;;;;;4362038;32;20086;-62
2022/02/06 16:20:14;;;;;;;21.42;10.65;;;;;;;;;;4374124;32;20085;-64
2022/02/06 16:22:41;;;;;;;19.85;10.70;;;;;;;;;;4375580;32;20524;-63
2022/02/06 16:25:08;;;;;;;17.42;10.23;;;;;;;;;;4374911;32;20093;-64
2022/02/06 16:27:35;;;;;;;21.70;11.02;;;;;;;;;;4362125;32;20105;-62
2022/02/06 16:30:02;;;;;;;18.67;11.10;;;;;;;;;;4361879;32;20078;-62
2022/02/06 16:32:29;;;;;;;17.73;10.38;;;;;;;;;;4361605;32;20147;-64
2022/02/06 16:34:56;;;;;;;18.48;10.48;;;;;;;;;;4374599;32;20081;-63
2022/02/06 16:37:23;;;;;;;20.37;11.85;;;;;;;;;;4374605;32;20096;-63
2022/02/06 16:39:50;;;;;;;19.60;11.40;;;;;;;;;;4363277;32;20079;-63
2022/02/06 16:42:19;;;;;;;20.23;11.02;;;;;;;;;;4364880;32;20160;-62
2022/02/06 16:44:46;;;;;;;22.15;11.00;;;;;;;;;;4364512;32;20162;-63
2022/02/06 16:47:13;;;;;;;19.90;10.68;;;;;;;;;;4351979;32;20519;-64
2022/02/06 16:49:40;;;;;;;19.55;11.90;;;;;;;;;;4377384;32;20100;-64
2022/02/06 16:52:08;;;;;;;18.75;10.65;;;;;;;;;;4364127;32;20558;-63
2022/02/06 16:54:35;;;;;;;15.98;10.52;;;;;;;;;;4364337;32;20081;-63
2022/02/06 16:57:02;;;;;;;16.45;9.45;;;;;;;;;;4376732;32;20139;-63
2022/02/06 16:59:29;;;;;;;18.23;11.05;;;;;;;;;;4376858;32;20085;-63
2022/02/06 17:01:57;;;;;;;16.17;10.50;;;;;;;;;;4378106;32;20148;-63
2022/02/06 17:04:24;;;;;;;19.08;10.73;;;;;;;;;;4364073;32;20076;-62
2022/02/06 17:06:52;;;;;;;16.87;10.63;;;;;;;;;;4363954;32;20070;-63
2022/02/06 17:09:20;;;;;;;19.75;10.73;;;;;;;;;;4351915;32;20161;-63
2022/02/06 17:11:48;;;;;;;17.55;10.25;;;;;;;;;;4377993;32;20070;-62
2022/02/06 17:14:17;;;;;;;17.55;9.55;;;;;;;;;;4364302;32;20082;-62
2022/02/06 17:16:45;;;;;;;19.45;10.30;;;;;;;;;;4351935;32;20090;-62
2022/02/06 17:19:12;;;;;;;16.30;10.10;;;;;;;;;;4363676;32;20198;-63
2022/02/06 17:21:42;;;;;;;15.00;8.52;;;;;;;;;;4364534;32;20094;-62